Time;durP1;ratioP1;P1;durP2;ratioP2;P2;SDS_P1;SDS_P2;PMS_P1;PMS_P2;Temp;Humidity;BMP_temperature;BMP_pressure;BME280_temperature;BME280_humidity;BME280_pressure;Samples;Min_cycle;Max_cycle;Signal;HPM_P1;HPM_P2
2023/06/22 00:00:48;;;;;;;;;;;;;;;;;;5090553;28;19912;-77
2023/06/22 00:03:14;;;;;;;;;;;;;;;;;;5071594;28;20011;-78
2023/06/22 00:05:40;;;;;;;;;;;;;;;;;;5077430;28;19963;-77
2023/06/22 00:08:06;;;;;;;;;;;;;;;;;;5071626;28;19932;-78
2023/06/22 00:10:32;;;;;;;;;;;;;;;;;;5064095;28;19924;-77
2023/06/22 00:12:58;;;;;;;;;;;;;;;;;;5071549;28;19913;-77
2023/06/22 00:15:24;;;;;;;;;;;;;;;;;;5077115;28;19923;-77
2023/06/22 00:17:50;;;;;;;;;;;;;;;;;;5078553;28;19966;-78
2023/06/22 00:20:18;;;;;;;;;;;;;;;;;;5071848;28;19924;-77
2023/06/22 00:22:43;;;;;;;;;;;;;;;;;;5080071;28;20375;-77
2023/06/22 00:25:09;;;;;;;;;;;;;;;;;;5072074;28;19913;-77
2023/06/22 00:27:35;;;;;;;;;;;;;;;;;;5070905;28;19924;-77
2023/06/22 00:30:01;;;;;;;;;;;;;;;;;;5070986;28;20041;-77
2023/06/22 00:32:27;;;;;;;;;;;;;;;;;;5077170;28;19923;-77
2023/06/22 00:34:53;;;;;;;;;;;;;;;;;;5074701;28;19923;-77
2023/06/22 00:37:19;;;;;;;;;;;;;;;;;;5088645;28;20282;-77
2023/06/22 00:39:45;;;;;;;;;;;;;;;;;;5077607;28;20407;-77
2023/06/22 00:42:11;;;;;;;;;;;;;;;;;;5071263;28;19958;-77
2023/06/22 00:44:37;;;;;;;;;;;;;;;;;;5073864;28;19916;-78
2023/06/22 00:47:03;;;;;;;;;;;;;;;;;;5071846;28;19913;-77
2023/06/22 00:49:29;;;;;;;;;;;;;;;;;;5075564;28;20429;-77
2023/06/22 00:51:55;;;;;;;;;;;;;;;;;;5075179;28;19916;-77
2023/06/22 00:54:24;;;;;;;;;;;;;;;;;;5070670;28;19940;-77
2023/06/22 00:56:52;;;;;;;;;;;;;;;;;;5073267;28;20282;-77
2023/06/22 00:59:18;;;;;;;;;;;;;;;;;;5075457;28;20015;-78
2023/06/22 01:01:44;;;;;;;;;;;;;;;;;;5072346;28;19963;-77
2023/06/22 01:04:11;;;;;;;;;;;;;;;;;;5082784;28;19916;-78
2023/06/22 01:06:38;;;;;;;;;;;;;;;;;;5069637;28;19924;-78
2023/06/22 01:09:05;;;;;;;;;;;;;;;;;;5071800;28;19923;-78
2023/06/22 01:11:31;;;;;;;;;;;;;;;;;;5070579;28;19912;-78
2023/06/22 01:13:56;;;;;;;;;;;;;;;;;;5071968;28;20402;-77
2023/06/22 01:16:22;;;;;;;;;;;;;;;;;;5067199;28;19916;-78
2023/06/22 01:18:48;;;;;;;;;;;;;;;;;;5072657;28;19927;-77
2023/06/22 01:21:14;;;;;;;;;;;;;;;;;;5070423;28;19912;-77
2023/06/22 01:23:40;;;;;;;;;;;;;;;;;;5072338;28;19919;-77
2023/06/22 01:26:06;;;;;;;;;;;;;;;;;;5075348;28;19912;-79
2023/06/22 01:28:32;;;;;;;;;;;;;;;;;;5075466;28;19928;-77
2023/06/22 01:31:05;;;;;;;;;;;;;;;;;;5075197;28;19920;-77
2023/06/22 01:33:31;;;;;;;;;;;;;;;;;;5079846;28;19956;-77
2023/06/22 01:35:57;;;;;;;;;;;;;;;;;;5074758;28;20421;-77
2023/06/22 01:38:23;;;;;;;;;;;;;;;;;;5074108;28;19956;-77
2023/06/22 01:40:49;;;;;;;;;;;;;;;;;;5081751;28;19966;-78
2023/06/22 01:43:15;;;;;;;;;;;;;;;;;;5077816;28;19955;-77
2023/06/22 01:45:41;;;;;;;;;;;;;;;;;;5075898;28;19948;-78
2023/06/22 01:48:07;;;;;;;;;;;;;;;;;;5074831;28;19920;-77
2023/06/22 01:50:33;;;;;;;;;;;;;;;;;;5072880;28;19916;-77
2023/06/22 01:52:58;;;;;;;;;;;;;;;;;;5078651;28;19923;-78
2023/06/22 01:55:24;;;;;;;;;;;;;;;;;;5084990;28;19916;-77
2023/06/22 01:57:50;;;;;;;;;;;;;;;;;;5080590;28;19924;-77
2023/06/22 02:00:16;;;;;;;;;;;;;;;;;;5074941;28;19916;-77
2023/06/22 02:02:42;;;;;;;;;;;;;;;;;;5074894;28;19920;-78
2023/06/22 02:05:09;;;;;;;;;;;;;;;;;;5073987;28;20041;-77
2023/06/22 02:07:36;;;;;;;;;;;;;;;;;;5073494;28;19920;-77
2023/06/22 02:10:02;;;;;;;;;;;;;;;;;;5075469;28;19912;-77
2023/06/22 02:12:28;;;;;;;;;;;;;;;;;;5077381;28;19927;-77
2023/06/22 02:14:54;;;;;;;;;;;;;;;;;;5074238;28;19917;-77
2023/06/22 02:17:20;;;;;;;;;;;;;;;;;;5074314;28;20386;-77
2023/06/22 02:19:46;;;;;;;;;;;;;;;;;;5072543;28;19917;-77
2023/06/22 02:22:15;;;;;;;;;;;;;;;;;;5075705;28;20017;-77
2023/06/22 02:24:41;;;;;;;;;;;;;;;;;;5073684;28;19912;-77
2023/06/22 02:27:07;;;;;;;;;;;;;;;;;;5074050;28;20368;-77
2023/06/22 02:29:33;;;;;;;;;;;;;;;;;;5074055;28;19917;-77
2023/06/22 02:31:58;;;;;;;;;;;;;;;;;;5079807;28;20237;-77
2023/06/22 02:34:24;;;;;;;;;;;;;;;;;;5072045;28;19916;-77
2023/06/22 02:36:51;;;;;;;;;;;;;;;;;;5068383;28;19917;-77
2023/06/22 02:39:17;;;;;;;;;;;;;;;;;;5074413;28;20329;-77
2023/06/22 02:41:43;;;;;;;;;;;;;;;;;;5060263;28;19939;-77
2023/06/22 02:44:08;;;;;;;;;;;;;;;;;;5074704;28;19952;-77
2023/06/22 02:46:34;;;;;;;;;;;;;;;;;;5075971;28;20326;-77
2023/06/22 02:49:00;;;;;;;;;;;;;;;;;;5082249;28;19912;-77
2023/06/22 02:51:26;;;;;;;;;;;;;;;;;;5077925;28;20253;-77
2023/06/22 02:53:57;;;;;;;;;;;;;;;;;;5073329;28;20359;-77
2023/06/22 02:56:25;;;;;;;;;;;;;;;;;;5070673;28;20240;-77
2023/06/22 02:58:50;;;;;;;;;;;;;;;;;;5075506;28;19978;-78
2023/06/22 03:01:16;;;;;;;;;;;;;;;;;;5073151;28;19916;-77
2023/06/22 03:03:42;;;;;;;;;;;;;;;;;;5078329;28;20320;-78
2023/06/22 03:06:13;;;;;;;;;;;;;;;;;;5075238;28;20133;-77
2023/06/22 03:08:41;;;;;;;;;;;;;;;;;;5073314;28;19927;-77
2023/06/22 03:11:07;;;;;;;;;;;;;;;;;;5062191;28;20264;-77
2023/06/22 03:13:33;;;;;;;;;;;;;;;;;;5071277;28;19913;-77
2023/06/22 03:15:59;;;;;;;;;;;;;;;;;;5069810;28;19920;-77
2023/06/22 03:18:25;;;;;;;;;;;;;;;;;;5068497;28;20459;-77
2023/06/22 03:20:54;;;;;;;;;;;;;;;;;;5073093;28;19912;-77
2023/06/22 03:23:20;;;;;;;;;;;;;;;;;;5072518;28;20027;-77
2023/06/22 03:25:46;;;;;;;;;;;;;;;;;;5070003;28;19921;-77
2023/06/22 03:28:12;;;;;;;;;;;;;;;;;;5071152;28;19916;-78
2023/06/22 03:30:38;;;;;;;;;;;;;;;;;;5073449;28;20012;-77
2023/06/22 03:33:04;;;;;;;;;;;;;;;;;;5071135;28;19969;-77
2023/06/22 03:35:30;;;;;;;;;;;;;;;;;;5069966;28;20026;-77
2023/06/22 03:37:56;;;;;;;;;;;;;;;;;;5072304;28;19912;-77
2023/06/22 03:40:22;;;;;;;;;;;;;;;;;;5073417;28;20307;-77
2023/06/22 03:42:48;;;;;;;;;;;;;;;;;;5074241;28;20352;-78
2023/06/22 03:45:14;;;;;;;;;;;;;;;;;;5074471;28;20324;-77
2023/06/22 03:47:40;;;;;;;;;;;;;;;;;;5072040;28;19920;-78
2023/06/22 03:50:06;;;;;;;;;;;;;;;;;;5072158;28;19900;-78
2023/06/22 03:52:32;;;;;;;;;;;;;;;;;;5072926;28;20114;-77
2023/06/22 03:54:58;;;;;;;;;;;;;;;;;;5073014;28;19920;-77
2023/06/22 03:57:24;;;;;;;;;;;;;;;;;;5071713;28;20265;-77
2023/06/22 03:59:50;;;;;;;;;;;;;;;;;;5079172;28;20420;-77
2023/06/22 04:02:16;;;;;;;;;;;;;;;;;;5063100;28;20384;-77
2023/06/22 04:04:41;;;;;;;;;;;;;;;;;;5067624;28;19912;-77
2023/06/22 04:07:08;;;;;;;;;;;;;;;;;;5073322;28;20360;-78
2023/06/22 04:09:34;;;;;;;;;;;;;;;;;;5065728;28;20356;-77
2023/06/22 04:12:00;;;;;;;;;;;;;;;;;;5073827;28;19986;-77
2023/06/22 04:14:26;;;;;;;;;;;;;;;;;;5070468;28;19946;-80
2023/06/22 04:16:52;;;;;;;;;;;;;;;;;;5072155;28;19917;-77
2023/06/22 04:19:18;;;;;;;;;;;;;;;;;;5068055;28;20332;-77
2023/06/22 04:21:44;;;;;;;;;;;;;;;;;;5068353;28;20070;-77
2023/06/22 04:24:10;;;;;;;;;;;;;;;;;;5073133;28;20449;-77
2023/06/22 04:26:37;;;;;;;;;;;;;;;;;;5074939;28;19998;-78
2023/06/22 04:29:05;;;;;;;;;;;;;;;;;;5072518;28;20008;-78
2023/06/22 04:31:31;;;;;;;;;;;;;;;;;;5069487;28;19917;-77
2023/06/22 04:33:57;;;;;;;;;;;;;;;;;;5071037;28;19916;-77
2023/06/22 04:36:23;;;;;;;;;;;;;;;;;;5072274;28;20403;-77
2023/06/22 04:38:52;;;;;;;;;;;;;;;;;;5067545;28;19920;-77
2023/06/22 04:41:23;;;;;;;;;;;;;;;;;;5072272;28;19924;-78
2023/06/22 04:43:53;;;;;;;;;;;;;;;;;;5071029;28;19959;-77
2023/06/22 04:46:19;;;;;;;;;;;;;;;;;;5071654;28;19932;-78
2023/06/22 04:48:45;;;;;;;;;;;;;;;;;;5065177;28;19912;-77
2023/06/22 04:51:11;;;;;;;;;;;;;;;;;;5076731;28;20349;-77
2023/06/22 04:53:37;;;;;;;;;;;;;;;;;;5066767;28;20388;-77
2023/06/22 04:56:04;;;;;;;;;;;;;;;;;;5066258;28;19917;-77
2023/06/22 04:58:32;;;;;;;;;;;;;;;;;;5079610;28;20280;-77
2023/06/22 05:00:58;;;;;;;;;;;;;;;;;;5076851;28;19921;-77
2023/06/22 05:03:25;;;;;;;;;;;;;;;;;;5081635;28;19932;-77
2023/06/22 05:05:51;;;;;;;;;;;;;;;;;;5077225;28;20639;-78
2023/06/22 05:08:17;;;;;;;;;;;;;;;;;;5079976;28;20018;-78
2023/06/22 05:10:43;;;;;;;;;;;;;;;;;;5074036;28;19920;-77
2023/06/22 05:13:09;;;;;;;;;;;;;;;;;;5079603;28;20987;-77
2023/06/22 05:15:39;;;;;;;;;;;;;;;;;;5075580;28;20031;-77
2023/06/22 05:18:05;;;;;;;;;;;;;;;;;;5109646;28;19927;-77
2023/06/22 05:20:32;;;;;;;;;;;;;;;;;;5080808;28;20194;-78
2023/06/22 05:22:58;;;;;;;;;;;;;;;;;;5079705;28;19917;-77
2023/06/22 05:25:23;;;;;;;;;;;;;;;;;;5086405;28;19916;-77
2023/06/22 05:27:51;;;;;;;;;;;;;;;;;;5086933;28;20247;-77
2023/06/22 05:30:18;;;;;;;;;;;;;;;;;;5076828;28;19978;-77
2023/06/22 05:32:44;;;;;;;;;;;;;;;;;;5073418;28;20022;-78
2023/06/22 05:35:10;;;;;;;;;;;;;;;;;;5077990;28;20287;-78
2023/06/22 05:37:36;;;;;;;;;;;;;;;;;;5074299;28;19917;-78
2023/06/22 05:40:02;;;;;;;;;;;;;;;;;;5072792;28;19923;-78
2023/06/22 05:42:28;;;;;;;;;;;;;;;;;;5079474;28;20422;-78
2023/06/22 05:44:54;;;;;;;;;;;;;;;;;;5079273;28;19975;-77
2023/06/22 05:47:21;;;;;;;;;;;;;;;;;;5080739;28;20236;-77
2023/06/22 05:49:47;;;;;;;;;;;;;;;;;;5080536;28;19917;-78
2023/06/22 05:52:13;;;;;;;;;;;;;;;;;;5072245;28;20405;-78
2023/06/22 05:54:39;;;;;;;;;;;;;;;;;;5073748;28;19920;-78
2023/06/22 05:57:04;;;;;;;;;;;;;;;;;;5076131;28;20360;-81
2023/06/22 05:59:30;;;;;;;;;;;;;;;;;;5067320;28;19916;-81
2023/06/22 06:01:56;;;;;;;;;;;;;;;;;;5068240;28;19967;-80
2023/06/22 06:04:22;;;;;;;;;;;;;;;;;;5072544;28;19928;-77
2023/06/22 06:06:48;;;;;;;;;;;;;;;;;;5080087;28;19916;-77
2023/06/22 06:09:14;;;;;;;;;;;;;;;;;;5075759;28;19924;-77
2023/06/22 06:11:40;;;;;;;;;;;;;;;;;;5083067;28;19923;-78
2023/06/22 06:14:06;;;;;;;;;;;;;;;;;;5074444;28;20011;-74
2023/06/22 06:16:32;;;;;;;;;;;;;;;;;;5086450;28;19956;-74
2023/06/22 06:18:58;;;;;;;;;;;;;;;;;;5069034;28;19913;-74
2023/06/22 06:21:24;;;;;;;;;;;;;;;;;;5072046;28;19900;-74
2023/06/22 06:23:50;;;;;;;;;;;;;;;;;;5072425;28;19922;-75
2023/06/22 06:26:16;;;;;;;;;;;;;;;;;;5076052;28;20054;-77
2023/06/22 06:28:43;;;;;;;;;;;;;;;;;;5075034;28;19917;-76
2023/06/22 06:31:09;;;;;;;;;;;;;;;;;;5085836;28;19924;-74
2023/06/22 06:33:35;;;;;;;;;;;;;;;;;;5079099;28;19917;-74
2023/06/22 06:36:03;;;;;;;;;;;;;;;;;;5071509;28;19916;-74
2023/06/22 06:38:29;;;;;;;;;;;;;;;;;;5068597;28;19920;-74
2023/06/22 06:40:55;;;;;;;;;;;;;;;;;;5071746;28;19987;-73
2023/06/22 06:43:20;;;;;;;;;;;;;;;;;;5074044;28;19983;-74
2023/06/22 06:45:46;;;;;;;;;;;;;;;;;;5078172;28;19924;-74
2023/06/22 06:48:12;;;;;;;;;;;;;;;;;;5073251;28;19943;-74
2023/06/22 06:50:38;;;;;;;;;;;;;;;;;;5077261;28;19917;-73
2023/06/22 06:53:05;;;;;;;;;;;;;;;;;;5078997;28;19980;-74
2023/06/22 06:55:32;;;;;;;;;;;;;;;;;;5078663;28;19916;-74
2023/06/22 06:57:59;;;;;;;;;;;;;;;;;;5079916;28;19924;-74
2023/06/22 07:00:25;;;;;;;;;;;;;;;;;;5074286;28;19922;-75
2023/06/22 07:02:51;;;;;;;;;;;;;;;;;;5092194;28;20336;-75
2023/06/22 07:05:17;;;;;;;;;;;;;;;;;;5078763;28;19936;-75
2023/06/22 07:07:43;;;;;;;;;;;;;;;;;;5077116;28;19951;-75
2023/06/22 07:10:09;;;;;;;;;;;;;;;;;;5070746;28;19952;-75
2023/06/22 07:12:35;;;;;;;;;;;;;;;;;;5067675;28;19913;-75
2023/06/22 07:15:01;;;;;;;;;;;;;;;;;;5067828;28;19995;-75
2023/06/22 07:17:27;;;;;;;;;;;;;;;;;;5080046;28;20380;-76
2023/06/22 07:19:53;;;;;;;;;;;;;;;;;;5073184;28;20282;-75
2023/06/22 07:22:19;;;;;;;;;;;;;;;;;;5068494;28;19975;-75
2023/06/22 07:24:45;;;;;;;;;;;;;;;;;;5071485;28;19917;-75
2023/06/22 07:27:12;;;;;;;;;;;;;;;;;;5071149;28;20016;-75
2023/06/22 07:29:40;;;;;;;;;;;;;;;;;;5071067;28;19913;-75
2023/06/22 07:32:06;;;;;;;;;;;;;;;;;;5068129;28;20325;-75
2023/06/22 07:34:33;;;;;;;;;;;;;;;;;;5072783;28;19908;-74
2023/06/22 07:36:59;;;;;;;;;;;;;;;;;;5072306;28;20280;-75
2023/06/22 07:39:26;;;;;;;;;;;;;;;;;;5077235;28;20030;-75
2023/06/22 07:41:52;;;;;;;;;;;;;;;;;;5068432;28;19925;-75
2023/06/22 07:44:18;;;;;;;;;;;;;;;;;;5068874;28;19912;-75
2023/06/22 07:46:44;;;;;;;;;;;;;;;;;;5069293;28;19921;-75
2023/06/22 07:49:10;;;;;;;;;;;;;;;;;;5069813;28;19928;-77
2023/06/22 07:51:36;;;;;;;;;;;;;;;;;;5066552;28;19922;-74
2023/06/22 07:54:02;;;;;;;;;;;;;;;;;;5078378;28;19913;-74
2023/06/22 07:56:28;;;;;;;;;;;;;;;;;;5072929;28;19931;-74
2023/06/22 07:58:54;;;;;;;;;;;;;;;;;;5076576;28;20384;-75
2023/06/22 08:01:20;;;;;;;;;;;;;;;;;;5081132;28;20399;-76
2023/06/22 08:03:46;;;;;;;;;;;;;;;;;;5081194;28;19916;-76
2023/06/22 08:06:12;;;;;;;;;;;;;;;;;;5071888;28;20330;-75
2023/06/22 08:08:38;;;;;;;;;;;;;;;;;;5068719;28;20019;-75
2023/06/22 08:11:05;;;;;;;;;;;;;;;;;;5080593;28;19909;-76
2023/06/22 08:13:31;;;;;;;;;;;;;;;;;;5079289;28;19917;-75
2023/06/22 08:15:57;;;;;;;;;;;;;;;;;;5075589;28;19912;-75
2023/06/22 08:18:23;;;;;;;;;;;;;;;;;;5067719;28;20027;-75
2023/06/22 08:20:49;;;;;;;;;;;;;;;;;;5075443;28;19924;-76
2023/06/22 08:23:15;;;;;;;;;;;;;;;;;;5077020;28;19920;-75
2023/06/22 08:25:41;;;;;;;;;;;;;;;;;;5072732;28;19935;-75
2023/06/22 08:28:07;;;;;;;;;;;;;;;;;;5080642;28;19919;-76
2023/06/22 08:30:33;;;;;;;;;;;;;;;;;;5076531;28;19920;-76
2023/06/22 08:32:59;;;;;;;;;;;;;;;;;;5075313;28;20393;-76
2023/06/22 08:35:25;;;;;;;;;;;;;;;;;;5070426;28;20396;-76
2023/06/22 08:37:56;;;;;;;;;;;;;;;;;;5064384;28;19935;-75
2023/06/22 08:40:22;;;;;;;;;;;;;;;;;;5069161;28;20352;-74
2023/06/22 08:42:48;;;;;;;;;;;;;;;;;;5071378;28;19920;-77
2023/06/22 08:45:14;;;;;;;;;;;;;;;;;;5072633;28;19912;-77
2023/06/22 08:47:43;;;;;;;;;;;;;;;;;;5066442;28;19963;-75
2023/06/22 08:50:11;;;;;;;;;;;;;;;;;;5063962;28;19942;-74
2023/06/22 08:52:37;;;;;;;;;;;;;;;;;;5066718;28;19968;-74
2023/06/22 08:55:03;;;;;;;;;;;;;;;;;;5069070;28;19924;-73
2023/06/22 08:57:30;;;;;;;;;;;;;;;;;;5072407;28;20320;-74
2023/06/22 08:59:58;;;;;;;;;;;;;;;;;;5072531;28;19916;-75
2023/06/22 09:02:24;;;;;;;;;;;;;;;;;;5069197;28;19916;-74
2023/06/22 09:04:55;;;;;;;;;;;;;;;;;;5070370;28;19994;-74
2023/06/22 09:07:22;;;;;;;;;;;;;;;;;;5075085;28;19999;-74
2023/06/22 09:09:48;;;;;;;;;;;;;;;;;;5073305;28;20304;-73
2023/06/22 09:12:14;;;;;;;;;;;;;;;;;;5068897;28;19908;-73
2023/06/22 09:14:40;;;;;;;;;;;;;;;;;;5063333;28;20368;-73
2023/06/22 09:17:06;;;;;;;;;;;;;;;;;;5084047;28;19958;-73
2023/06/22 09:19:32;;;;;;;;;;;;;;;;;;5073020;28;19916;-73
2023/06/22 09:21:58;;;;;;;;;;;;;;;;;;5073905;28;19916;-74
2023/06/22 09:24:24;;;;;;;;;;;;;;;;;;5069412;28;19920;-74
2023/06/22 09:26:50;;;;;;;;;;;;;;;;;;5065102;28;20019;-74
2023/06/22 09:29:16;;;;;;;;;;;;;;;;;;5069957;28;19916;-78
2023/06/22 09:31:42;;;;;;;;;;;;;;;;;;5065288;28;20372;-78
2023/06/22 09:34:08;;;;;;;;;;;;;;;;;;5073869;28;19970;-78
2023/06/22 09:36:35;;;;;;;;;;;;;;;;;;5070415;28;20002;-78
2023/06/22 09:39:05;;;;;;;;;;;;;;;;;;5070347;28;19912;-79
2023/06/22 09:41:31;;;;;;;;;;;;;;;;;;5075209;28;19917;-78
2023/06/22 09:43:57;;;;;;;;;;;;;;;;;;5064374;28;20287;-78
2023/06/22 09:46:26;;;;;;;;;;;;;;;;;;5066704;28;20425;-78
2023/06/22 09:48:52;;;;;;;;;;;;;;;;;;5073960;28;19920;-78
2023/06/22 09:51:19;;;;;;;;;;;;;;;;;;5072253;28;22180;-78
2023/06/22 09:53:45;;;;;;;;;;;;;;;;;;5076457;28;19916;-78
2023/06/22 09:56:14;;;;;;;;;;;;;;;;;;5068562;28;19912;-78
2023/06/22 09:58:41;;;;;;;;;;;;;;;;;;5064921;28;20452;-79
2023/06/22 10:01:07;;;;;;;;;;;;;;;;;;5071011;28;20359;-79
2023/06/22 10:03:32;;;;;;;;;;;;;;;;;;5068009;28;19963;-79
2023/06/22 10:05:58;;;;;;;;;;;;;;;;;;5066491;28;19959;-79
2023/06/22 10:08:24;;;;;;;;;;;;;;;;;;5071116;28;19919;-78
2023/06/22 10:10:50;;;;;;;;;;;;;;;;;;5075335;28;19959;-79
2023/06/22 10:13:16;;;;;;;;;;;;;;;;;;5061244;28;20888;-80
2023/06/22 10:15:42;;;;;;;;;;;;;;;;;;5068070;28;19924;-78
2023/06/22 10:18:08;;;;;;;;;;;;;;;;;;5071316;28;20360;-79
2023/06/22 10:20:34;;;;;;;;;;;;;;;;;;5076108;28;20003;-78
2023/06/22 10:23:00;;;;;;;;;;;;;;;;;;5079120;28;19929;-78
2023/06/22 10:25:26;;;;;;;;;;;;;;;;;;5061564;28;20238;-78
2023/06/22 10:27:52;;;;;;;;;;;;;;;;;;5071410;28;20300;-76
2023/06/22 10:30:18;;;;;;;;;;;;;;;;;;5061083;28;20360;-78
2023/06/22 10:32:44;;;;;;;;;;;;;;;;;;5066829;28;19928;-78
2023/06/22 10:35:15;;;;;;;;;;;;;;;;;;5072092;28;19920;-78
2023/06/22 10:37:43;;;;;;;;;;;;;;;;;;5069563;28;19916;-78
2023/06/22 10:40:08;;;;;;;;;;;;;;;;;;5086115;28;19927;-78
2023/06/22 10:42:34;;;;;;;;;;;;;;;;;;5075395;28;19920;-78
2023/06/22 10:45:00;;;;;;;;;;;;;;;;;;5068635;28;19959;-78
2023/06/22 10:47:26;;;;;;;;;;;;;;;;;;5068689;28;19977;-78
2023/06/22 10:49:52;;;;;;;;;;;;;;;;;;5081678;28;19912;-78
2023/06/22 10:52:18;;;;;;;;;;;;;;;;;;5075362;28;19913;-78
2023/06/22 10:54:44;;;;;;;;;;;;;;;;;;5071498;28;19924;-78
2023/06/22 10:57:10;;;;;;;;;;;;;;;;;;5070735;28;19928;-78
2023/06/22 10:59:36;;;;;;;;;;;;;;;;;;5075435;28;19920;-78
2023/06/22 11:02:02;;;;;;;;;;;;;;;;;;5076392;28;19921;-78
2023/06/22 11:04:28;;;;;;;;;;;;;;;;;;5075694;28;19913;-78
2023/06/22 11:06:56;;;;;;;;;;;;;;;;;;5074820;28;19917;-78
2023/06/22 11:09:22;;;;;;;;;;;;;;;;;;5074679;28;20283;-77
2023/06/22 11:11:48;;;;;;;;;;;;;;;;;;5081314;28;19993;-78
2023/06/22 11:14:14;;;;;;;;;;;;;;;;;;5069303;28;20305;-78
2023/06/22 11:16:39;;;;;;;;;;;;;;;;;;5088523;28;19926;-78
2023/06/22 11:19:05;;;;;;;;;;;;;;;;;;5070921;28;19913;-78
2023/06/22 11:21:32;;;;;;;;;;;;;;;;;;5076635;28;19917;-78
2023/06/22 11:23:58;;;;;;;;;;;;;;;;;;5076968;28;20061;-78
2023/06/22 11:26:25;;;;;;;;;;;;;;;;;;5072867;28;19912;-77
2023/06/22 11:28:50;;;;;;;;;;;;;;;;;;5074669;28;19912;-77
2023/06/22 11:31:16;;;;;;;;;;;;;;;;;;5072072;28;19913;-77
2023/06/22 11:33:44;;;;;;;;;;;;;;;;;;5065763;28;19944;-77
2023/06/22 11:36:11;;;;;;;;;;;;;;;;;;5060688;28;19975;-77
2023/06/22 11:38:38;;;;;;;;;;;;;;;;;;5067719;28;19916;-77
2023/06/22 11:41:04;;;;;;;;;;;;;;;;;;5075927;28;19939;-76
2023/06/22 11:43:31;;;;;;;;;;;;;;;;;;5069252;28;19920;-76
2023/06/22 11:45:57;;;;;;;;;;;;;;;;;;5069146;28;20259;-77
2023/06/22 11:48:23;;;;;;;;;;;;;;;;;;5074268;28;20347;-77
2023/06/22 11:50:49;;;;;;;;;;;;;;;;;;5074816;28;19932;-77
2023/06/22 11:53:18;;;;;;;;;;;;;;;;;;5075634;28;19920;-77
2023/06/22 11:55:44;;;;;;;;;;;;;;;;;;5069806;28;20006;-77
2023/06/22 11:58:11;;;;;;;;;;;;;;;;;;5071734;28;20014;-86
2023/06/22 12:00:37;;;;;;;;;;;;;;;;;;5066574;28;20340;-82
2023/06/22 12:03:03;;;;;;;;;;;;;;;;;;5083865;28;19982;-82
2023/06/22 12:05:29;;;;;;;;;;;;;;;;;;5067743;28;19920;-82
2023/06/22 12:07:55;;;;;;;;;;;;;;;;;;5093147;28;19959;-82
2023/06/22 12:10:21;;;;;;;;;;;;;;;;;;5068772;28;20004;-82
2023/06/22 12:12:47;;;;;;;;;;;;;;;;;;5070945;28;19916;-86
2023/06/22 12:15:13;;;;;;;;;;;;;;;;;;5065387;28;19928;-88
2023/06/22 12:17:39;;;;;;;;;;;;;;;;;;5064410;28;19916;-88
2023/06/22 12:20:05;;;;;;;;;;;;;;;;;;5070657;28;19916;-89
2023/06/22 12:22:31;;;;;;;;;;;;;;;;;;5070554;28;19937;-90
2023/06/22 12:24:57;;;;;;;;;;;;;;;;;;5066656;28;19913;-88
2023/06/22 12:27:23;;;;;;;;;;;;;;;;;;5056179;28;19950;-85
2023/06/22 12:29:49;;;;;;;;;;;;;;;;;;5063416;28;19920;-87
2023/06/22 12:32:15;;;;;;;;;;;;;;;;;;5066645;28;20023;-88
2023/06/22 12:34:41;;;;;;;;;;;;;;;;;;5095428;28;19923;-85
2023/06/22 12:37:06;;;;;;;;;;;;;;;;;;5073774;28;19985;-83
2023/06/22 12:39:32;;;;;;;;;;;;;;;;;;5069978;28;19966;-88
2023/06/22 12:41:58;;;;;;;;;;;;;;;;;;5075044;28;19947;-88
2023/06/22 12:44:24;;;;;;;;;;;;;;;;;;5075438;28;19915;-89
2023/06/22 12:46:50;;;;;;;;;;;;;;;;;;5070917;28;20387;-88
2023/06/22 12:49:16;;;;;;;;;;;;;;;;;;5068972;28;19916;-90
2023/06/22 12:51:42;;;;;;;;;;;;;;;;;;5087133;28;19923;-89
2023/06/22 12:54:08;;;;;;;;;;;;;;;;;;5071087;28;19923;-89
2023/06/22 12:56:34;;;;;;;;;;;;;;;;;;5085432;28;19912;-89
2023/06/22 12:59:03;;;;;;;;;;;;;;;;;;5070561;28;20423;-89
2023/06/22 13:01:30;;;;;;;;;;;;;;;;;;5077784;28;19923;-89
2023/06/22 13:03:56;;;;;;;;;;;;;;;;;;5080120;28;19997;-88
2023/06/22 13:06:22;;;;;;;;;;;;;;;;;;5071566;28;19958;-89
2023/06/22 13:08:48;;;;;;;;;;;;;;;;;;5067987;28;20045;-89
2023/06/22 13:11:14;;;;;;;;;;;;;;;;;;5080608;28;20379;-89
2023/06/22 13:13:39;;;;;;;;;;;;;;;;;;5074701;28;19952;-89
2023/06/22 13:16:05;;;;;;;;;;;;;;;;;;5075431;28;19916;-89
2023/06/22 13:18:33;;;;;;;;;;;;;;;;;;5077426;28;19928;-89
2023/06/22 13:20:59;;;;;;;;;;;;;;;;;;5078825;28;19920;-89
2023/06/22 13:23:25;;;;;;;;;;;;;;;;;;5079152;28;19916;-89
2023/06/22 13:25:51;;;;;;;;;;;;;;;;;;5074265;28;19920;-89
2023/06/22 13:28:17;;;;;;;;;;;;;;;;;;5083312;28;19916;-90
2023/06/22 13:30:45;;;;;;;;;;;;;;;;;;5086214;28;19912;-90
2023/06/22 13:33:11;;;;;;;;;;;;;;;;;;5084776;28;19974;-88
2023/06/22 13:35:37;;;;;;;;;;;;;;;;;;5075996;28;19917;-89
2023/06/22 13:38:03;;;;;;;;;;;;;;;;;;5074569;28;19930;-89
2023/06/22 13:40:29;;;;;;;;;;;;;;;;;;5080493;28;19916;-89
2023/06/22 13:42:55;;;;;;;;;;;;;;;;;;5077164;28;19920;-89
2023/06/22 13:45:21;;;;;;;;;;;;;;;;;;5074775;28;19916;-90
2023/06/22 13:47:47;;;;;;;;;;;;;;;;;;5073662;28;20224;-86
2023/06/22 13:50:13;;;;;;;;;;;;;;;;;;5071800;28;20340;-86
2023/06/22 13:52:39;;;;;;;;;;;;;;;;;;5078015;28;19917;-84
2023/06/22 13:55:05;;;;;;;;;;;;;;;;;;5081021;28;19912;-90
2023/06/22 13:57:31;;;;;;;;;;;;;;;;;;5076851;28;19932;-84
2023/06/22 13:59:57;;;;;;;;;;;;;;;;;;5074862;28;19917;-88
2023/06/22 14:02:23;;;;;;;;;;;;;;;;;;5078403;28;19924;-86
2023/06/22 14:04:49;;;;;;;;;;;;;;;;;;5076557;28;20347;-87
2023/06/22 14:07:15;;;;;;;;;;;;;;;;;;5079732;28;19920;-87
2023/06/22 14:09:41;;;;;;;;;;;;;;;;;;5082929;28;19962;-86
2023/06/22 14:12:07;;;;;;;;;;;;;;;;;;5072692;28;19916;-82
2023/06/22 14:14:33;;;;;;;;;;;;;;;;;;5080082;28;19916;-84
2023/06/22 14:16:59;;;;;;;;;;;;;;;;;;5075418;28;19920;-84
2023/06/22 14:19:25;;;;;;;;;;;;;;;;;;5067883;28;19919;-84
2023/06/22 14:21:51;;;;;;;;;;;;;;;;;;5080244;28;19916;-83
2023/06/22 14:24:16;;;;;;;;;;;;;;;;;;5073293;28;20410;-81
2023/06/22 14:26:42;;;;;;;;;;;;;;;;;;5073996;28;19917;-88
2023/06/22 14:29:08;;;;;;;;;;;;;;;;;;5070517;28;19943;-84
2023/06/22 14:31:34;;;;;;;;;;;;;;;;;;5074544;28;20027;-82
2023/06/22 14:34:00;;;;;;;;;;;;;;;;;;5069508;28;19920;-84
2023/06/22 14:36:26;;;;;;;;;;;;;;;;;;5102856;27;19939;-86
2023/06/22 14:38:52;;;;;;;;;;;;;;;;;;5075504;28;19916;-86
2023/06/22 14:41:19;;;;;;;;;;;;;;;;;;5074866;28;19955;-87
2023/06/22 14:43:46;;;;;;;;;;;;;;;;;;5074362;28;19946;-87
2023/06/22 14:46:12;;;;;;;;;;;;;;;;;;5077169;28;19986;-86
2023/06/22 14:48:38;;;;;;;;;;;;;;;;;;5076258;28;19913;-87
2023/06/22 14:51:04;;;;;;;;;;;;;;;;;;5065563;28;20380;-86
2023/06/22 14:53:30;;;;;;;;;;;;;;;;;;5069454;28;19912;-87
2023/06/22 14:55:56;;;;;;;;;;;;;;;;;;5079020;28;19951;-86
2023/06/22 14:58:22;;;;;;;;;;;;;;;;;;5084474;28;19959;-87
2023/06/22 15:00:48;;;;;;;;;;;;;;;;;;5071782;28;19917;-86
2023/06/22 15:03:21;;;;;;;;;;;;;;;;;;5075172;28;19920;-87
2023/06/22 15:05:47;;;;;;;;;;;;;;;;;;5073844;28;19917;-87
2023/06/22 15:08:13;;;;;;;;;;;;;;;;;;5074462;28;19916;-86
2023/06/22 15:10:39;;;;;;;;;;;;;;;;;;5075183;28;19933;-86
2023/06/22 15:13:05;;;;;;;;;;;;;;;;;;5074979;28;19916;-88
2023/06/22 15:15:30;;;;;;;;;;;;;;;;;;5074691;28;20520;-88
2023/06/22 15:17:56;;;;;;;;;;;;;;;;;;5068460;28;19939;-89
2023/06/22 15:20:22;;;;;;;;;;;;;;;;;;5072944;28;19921;-86
2023/06/22 15:22:48;;;;;;;;;;;;;;;;;;5075864;28;19951;-87
2023/06/22 15:25:14;;;;;;;;;;;;;;;;;;5076809;28;19920;-83
2023/06/22 15:27:40;;;;;;;;;;;;;;;;;;5075537;28;19924;-87
2023/06/22 15:30:07;;;;;;;;;;;;;;;;;;5078689;28;19932;-89
2023/06/22 15:32:32;;;;;;;;;;;;;;;;;;5073302;28;20007;-87
2023/06/22 15:34:58;;;;;;;;;;;;;;;;;;5066221;28;19916;-86
2023/06/22 15:37:24;;;;;;;;;;;;;;;;;;5078569;28;19916;-85
2023/06/22 15:39:50;;;;;;;;;;;;;;;;;;5070309;28;20011;-85
2023/06/22 15:42:16;;;;;;;;;;;;;;;;;;5070996;28;19916;-87
2023/06/22 15:44:42;;;;;;;;;;;;;;;;;;5072309;28;20268;-87
2023/06/22 15:47:08;;;;;;;;;;;;;;;;;;5075862;28;19991;-85
2023/06/22 15:49:34;;;;;;;;;;;;;;;;;;5068261;28;19915;-85
2023/06/22 15:52:00;;;;;;;;;;;;;;;;;;5069557;28;19920;-87
2023/06/22 15:54:26;;;;;;;;;;;;;;;;;;5073317;28;19923;-85
2023/06/22 15:56:52;;;;;;;;;;;;;;;;;;5074010;28;19913;-86
2023/06/22 15:59:18;;;;;;;;;;;;;;;;;;5063765;28;19959;-85
2023/06/22 16:01:44;;;;;;;;;;;;;;;;;;5074062;28;19921;-87
2023/06/22 16:04:10;;;;;;;;;;;;;;;;;;5079621;28;19916;-87
2023/06/22 16:06:36;;;;;;;;;;;;;;;;;;5073789;28;19916;-90
2023/06/22 16:09:03;;;;;;;;;;;;;;;;;;5070800;28;19912;-88
2023/06/22 16:11:29;;;;;;;;;;;;;;;;;;5085177;28;19971;-88
2023/06/22 16:13:55;;;;;;;;;;;;;;;;;;5079730;28;19901;-85
2023/06/22 16:16:21;;;;;;;;;;;;;;;;;;5075281;28;19951;-88
2023/06/22 16:18:47;;;;;;;;;;;;;;;;;;5074283;28;20245;-89
2023/06/22 16:21:13;;;;;;;;;;;;;;;;;;5072473;28;19932;-90
2023/06/22 16:23:39;;;;;;;;;;;;;;;;;;5075162;28;19916;-89
2023/06/22 16:26:05;;;;;;;;;;;;;;;;;;5074661;28;19966;-89
2023/06/22 16:28:31;;;;;;;;;;;;;;;;;;5090349;28;19968;-90
2023/06/22 16:30:56;;;;;;;;;;;;;;;;;;5072810;28;19912;-89
2023/06/22 16:33:22;;;;;;;;;;;;;;;;;;5097284;28;19913;-90
2023/06/22 16:35:48;;;;;;;;;;;;;;;;;;5069403;28;20310;-87
2023/06/22 16:38:14;;;;;;;;;;;;;;;;;;5071626;28;19942;-89